createdAt,value
2023-04-18T00:01:28.839Z,95012.25
2023-04-18T00:03:55.949Z,95016.34
2023-04-18T00:06:24.007Z,95013.81
2023-04-18T00:08:50.981Z,95014.78
2023-04-18T00:11:17.650Z,95011.72
2023-04-18T00:13:44.324Z,95007.25
2023-04-18T00:16:13.281Z,95002.19
2023-04-18T00:18:40.072Z,95003.00
2023-04-18T00:21:06.873Z,95007.69
2023-04-18T00:23:35.173Z,95010.47
2023-04-18T00:26:01.965Z,95010.84
2023-04-18T00:28:28.523Z,95003.56
2023-04-18T00:30:55.221Z,95012.44
2023-04-18T00:33:21.864Z,95006.34
2023-04-18T00:35:48.435Z,95010.75
2023-04-18T00:38:14.981Z,95006.28
2023-04-18T00:40:43.203Z,95002.19
2023-04-18T00:43:09.786Z,95003.22
2023-04-18T00:45:37.039Z,94999.75
2023-04-18T00:48:03.941Z,94997.50
2023-04-18T00:50:31.282Z,95000.94
2023-04-18T00:52:58.566Z,94997.94
2023-04-18T00:55:25.192Z,94993.66
2023-04-18T00:57:53.494Z,94987.59
2023-04-18T01:00:22.702Z,94985.97
2023-04-18T01:02:52.977Z,94987.81
2023-04-18T01:05:21.337Z,94978.72
2023-04-18T01:07:48.046Z,94987.31
2023-04-18T01:10:14.621Z,94991.66
2023-04-18T01:12:41.415Z,94992.13
2023-04-18T01:15:09.926Z,94984.47
2023-04-18T01:17:36.532Z,94982.00
2023-04-18T01:20:06.193Z,94979.94
2023-04-18T01:22:33.732Z,94978.13
2023-04-18T01:25:06.924Z,94969.81
2023-04-18T01:27:33.460Z,94965.34
2023-04-18T01:30:00.037Z,94966.75
2023-04-18T01:32:26.658Z,94966.53
2023-04-18T01:34:53.273Z,94963.31
2023-04-18T01:37:19.864Z,94965.94
2023-04-18T01:39:47.732Z,94965.34
2023-04-18T01:42:15.724Z,94967.94
2023-04-18T01:44:43.128Z,94972.84
2023-04-18T01:47:09.665Z,94962.94
2023-04-18T01:49:36.182Z,94962.56
2023-04-18T01:52:02.713Z,94963.97
2023-04-18T01:54:29.530Z,94955.97
2023-04-18T01:56:56.068Z,94957.25
2023-04-18T01:59:24.061Z,94954.44
2023-04-18T02:01:50.734Z,94955.56
2023-04-18T02:04:17.574Z,94952.44
2023-04-18T02:06:44.296Z,94947.38
2023-04-18T02:09:10.862Z,94953.25
2023-04-18T02:11:37.424Z,94952.59
2023-04-18T02:14:03.946Z,94955.00
2023-04-18T02:16:31.921Z,94954.22
2023-04-18T02:18:58.577Z,94949.53
2023-04-18T02:21:25.253Z,94948.56
2023-04-18T02:23:52.070Z,94946.94
2023-04-18T02:26:18.700Z,94948.56
2023-04-18T02:28:45.254Z,94948.94
2023-04-18T02:31:14.847Z,94955.59
2023-04-18T02:33:43.343Z,94950.13
2023-04-18T02:36:10.009Z,94955.22
2023-04-18T02:38:36.610Z,94955.06
2023-04-18T02:41:03.592Z,94955.94
2023-04-18T02:43:30.203Z,94955.28
2023-04-18T02:45:56.910Z,94961.97
2023-04-18T02:48:23.970Z,94961.97
2023-04-18T02:50:51.873Z,94962.78
2023-04-18T02:53:18.457Z,94963.81
2023-04-18T02:55:45.011Z,94955.50
2023-04-18T02:58:11.677Z,94952.28
2023-04-18T03:00:38.228Z,94960.94
2023-04-18T03:03:05.536Z,94960.94
2023-04-18T03:05:32.369Z,94960.34
2023-04-18T03:08:00.308Z,94954.69
2023-04-18T03:10:26.859Z,94952.88
2023-04-18T03:12:53.456Z,94952.28
2023-04-18T03:15:20.316Z,94947.59
2023-04-18T03:17:46.933Z,94948.03
2023-04-18T03:20:13.546Z,94947.59
2023-04-18T03:22:40.253Z,94957.34
2023-04-18T03:25:09.162Z,94952.88
2023-04-18T03:27:35.794Z,94947.44
2023-04-18T03:30:02.626Z,94944.22
2023-04-18T03:32:29.239Z,94945.03
2023-04-18T03:34:55.958Z,94943.19
2023-04-18T03:37:22.508Z,94937.31
2023-04-18T03:39:49.091Z,94935.44
2023-04-18T03:42:17.038Z,94940.63
2023-04-18T03:44:43.607Z,94941.28
2023-04-18T03:47:10.252Z,94944.63
2023-04-18T03:49:36.952Z,94934.59
2023-04-18T03:52:03.669Z,94935.75
2023-04-18T03:54:30.231Z,94936.50
2023-04-18T03:56:59.279Z,94942.16
2023-04-18T03:59:27.290Z,94945.81
2023-04-18T04:01:53.917Z,94950.66
2023-04-18T04:04:20.695Z,94944.81
2023-04-18T04:06:47.634Z,94939.97
2023-04-18T04:09:14.217Z,94939.81
2023-04-18T04:11:40.850Z,94942.00
2023-04-18T04:14:07.452Z,94943.03
2023-04-18T04:16:35.657Z,94939.00
2023-04-18T04:19:02.322Z,94944.28
2023-04-18T04:21:30.626Z,94937.97
2023-04-18T04:23:57.315Z,94946.47
2023-04-18T04:26:24.012Z,94937.97
2023-04-18T04:28:51.616Z,94934.75
2023-04-18T04:31:18.688Z,94937.53
2023-04-18T04:33:46.740Z,94943.84
2023-04-18T04:36:16.682Z,94946.03
2023-04-18T04:38:45.026Z,94946.91
2023-04-18T04:41:11.756Z,94940.88
2023-04-18T04:43:41.282Z,94942.66
2023-04-18T04:46:08.874Z,94949.13
2023-04-18T04:48:35.719Z,94945.44
2023-04-18T04:51:04.009Z,94946.69
2023-04-18T04:53:30.643Z,94949.53
2023-04-18T04:55:57.524Z,94950.41
2023-04-18T04:58:24.328Z,94947.19
2023-04-18T05:00:52.600Z,94947.34
2023-04-18T05:03:19.603Z,94952.03
2023-04-18T05:05:46.553Z,94955.09
2023-04-18T05:08:14.542Z,94952.06
2023-04-18T05:10:41.550Z,94948.72
2023-04-18T05:13:08.202Z,94958.38
2023-04-18T05:15:34.817Z,94961.81
2023-04-18T05:18:01.485Z,94955.47
2023-04-18T05:20:28.250Z,94958.13
2023-04-18T05:22:54.988Z,94956.59
2023-04-18T05:25:22.986Z,94959.75
2023-04-18T05:27:50.939Z,94963.09
2023-04-18T05:30:17.682Z,94972.38
2023-04-18T05:32:44.402Z,94973.47
2023-04-18T05:35:11.071Z,94971.94
2023-04-18T05:37:37.685Z,94982.44
2023-04-18T05:40:05.316Z,94968.56
2023-04-18T05:42:33.318Z,94977.19
2023-04-18T05:45:00.001Z,94972.88
2023-04-18T05:47:28.477Z,94976.69
2023-04-18T05:49:55.328Z,94977.06
2023-04-18T05:52:22.079Z,94981.97
2023-04-18T05:54:48.689Z,94977.59
2023-04-18T05:57:15.372Z,94973.63
2023-04-18T05:59:43.775Z,94980.66
2023-04-18T06:02:13.418Z,94978.66
2023-04-18T06:04:44.032Z,94972.66
2023-04-18T06:07:11.105Z,94973.91
2023-04-18T06:09:37.687Z,94980.56
2023-04-18T06:12:04.476Z,94986.66
2023-04-18T06:14:31.400Z,94993.72
2023-04-18T06:16:59.605Z,94996.25
2023-04-18T06:19:26.287Z,94996.56
2023-04-18T06:21:53.412Z,94994.06
2023-04-18T06:24:21.134Z,94994.84
2023-04-18T06:26:47.738Z,94991.75
2023-04-18T06:29:14.393Z,94997.28
2023-04-18T06:31:42.035Z,94988.66
2023-04-18T06:34:10.224Z,94992.09
2023-04-18T06:36:36.836Z,94996.56
2023-04-18T06:39:03.827Z,94994.13
2023-04-18T06:41:31.674Z,94989.81
2023-04-18T06:46:27.884Z,94991.25
2023-04-18T06:48:54.554Z,94990.44
2023-04-18T06:51:22.486Z,94985.91
2023-04-18T06:53:52.501Z,94996.97
2023-04-18T06:56:19.426Z,94998.06
2023-04-18T06:58:46.309Z,94993.22
2023-04-18T07:01:12.902Z,94992.94
2023-04-18T07:03:39.659Z,94995.94
2023-04-18T07:06:08.765Z,95003.56
2023-04-18T07:08:36.732Z,94992.56
2023-04-18T07:11:03.334Z,94995.88
2023-04-18T07:13:29.908Z,94999.53
2023-04-18T07:15:56.818Z,94989.03
2023-04-18T07:18:34.259Z,94999.72
2023-04-18T07:21:03.866Z,94991.31
2023-04-18T07:23:30.532Z,94988.91
2023-04-18T07:26:01.519Z,94992.50
2023-04-18T07:28:28.226Z,94999.88
2023-04-18T07:30:55.380Z,94996.97
2023-04-18T07:33:22.024Z,94998.03
2023-04-18T07:35:49.917Z,94993.31
2023-04-18T07:38:16.619Z,95002.22
2023-04-18T07:40:44.866Z,95002.22
2023-04-18T07:43:12.868Z,94992.72
2023-04-18T07:45:39.548Z,94988.19
2023-04-18T07:48:06.520Z,94983.03
2023-04-18T07:50:33.139Z,94994.69
2023-04-18T07:52:59.736Z,94994.47
2023-04-18T07:55:26.428Z,94999.38
2023-04-18T07:57:53.079Z,94996.47
2023-04-18T08:00:21.483Z,94998.50
2023-04-18T08:02:48.216Z,94995.66
2023-04-18T08:05:15.050Z,94993.22
2023-04-18T08:07:41.832Z,95002.38
2023-04-18T08:10:09.173Z,94994.28
2023-04-18T08:12:36.772Z,95004.38
2023-04-18T08:15:03.805Z,94999.47
2023-04-18T08:17:33.045Z,95004.53
2023-04-18T08:20:00.834Z,94998.78
2023-04-18T08:22:27.448Z,94994.56
2023-04-18T08:25:04.332Z,95000.25
2023-04-18T08:27:32.337Z,94994.19
2023-04-18T08:29:59.008Z,94991.09
2023-04-18T08:32:25.731Z,94991.22
2023-04-18T08:34:53.750Z,94994.69
2023-04-18T08:37:20.388Z,94993.09
2023-04-18T08:39:47.057Z,94991.97
2023-04-18T08:42:16.436Z,94982.34
2023-04-18T08:44:43.249Z,94984.31
2023-04-18T08:47:09.982Z,94992.84
2023-04-18T08:49:36.639Z,94992.41
2023-04-18T08:52:11.129Z,94989.41
2023-04-18T08:54:41.969Z,94997.84
2023-04-18T08:57:10.394Z,94998.09
2023-04-18T08:59:37.039Z,94994.59
2023-04-18T09:02:05.537Z,94996.72
2023-04-18T09:04:36.659Z,95000.97
2023-04-18T09:07:06.832Z,94999.47
2023-04-18T09:09:47.001Z,95005.50
2023-04-18T09:12:15.203Z,95004.22
2023-04-18T09:14:48.544Z,95000.66
2023-04-18T09:17:21.840Z,95002.59
2023-04-18T09:19:50.062Z,95005.25
2023-04-18T09:22:18.137Z,95008.00
2023-04-18T09:24:53.584Z,95000.66
2023-04-18T09:27:23.253Z,95000.63
2023-04-18T09:29:51.840Z,94998.13
2023-04-18T09:32:26.832Z,94991.00
2023-04-18T09:34:58.178Z,94983.53
2023-04-18T09:37:26.815Z,94987.84
2023-04-18T09:39:54.179Z,94992.53
2023-04-18T09:42:21.648Z,94991.63
2023-04-18T09:45:06.094Z,94990.84
2023-04-18T09:47:35.142Z,94988.78
2023-04-18T09:50:03.569Z,94987.63
2023-04-18T09:52:34.832Z,94976.63
2023-04-18T09:55:03.561Z,94985.53
2023-04-18T09:57:32.366Z,94989.00
2023-04-18T10:00:10.690Z,94990.28
2023-04-18T10:02:49.434Z,94992.81
2023-04-18T10:05:19.533Z,94989.16
2023-04-18T10:07:50.036Z,94990.16
2023-04-18T10:10:17.452Z,94986.13
2023-04-18T10:12:44.800Z,94992.78
2023-04-18T10:15:11.834Z,94994.06
2023-04-18T10:17:56.083Z,94989.47
2023-04-18T10:20:31.049Z,94990.34
2023-04-18T10:23:00.013Z,94994.16
2023-04-18T10:25:49.377Z,94988.06
2023-04-18T10:28:16.466Z,94991.91
2023-04-18T10:30:56.650Z,94993.06
2023-04-18T10:33:32.141Z,95000.66
2023-04-18T10:36:01.347Z,94995.00
2023-04-18T10:38:29.667Z,94994.06
2023-04-18T10:41:15.148Z,95001.88
2023-04-18T10:44:18.339Z,94999.69
2023-04-18T10:47:31.062Z,94998.66
2023-04-18T10:50:01.474Z,94996.13
2023-04-18T10:52:28.538Z,94991.09
2023-04-18T10:55:07.446Z,94986.16
2023-04-18T10:57:42.498Z,94982.69
2023-04-18T11:00:14.650Z,94981.97
2023-04-18T11:02:49.347Z,94979.19
2023-04-18T11:05:20.652Z,94976.00
2023-04-18T11:07:48.983Z,94983.00
2023-04-18T11:10:21.873Z,94971.47
2023-04-18T11:12:49.769Z,94972.22
2023-04-18T11:15:21.193Z,94973.66
2023-04-18T11:17:57.517Z,94962.13
2023-04-18T11:20:24.414Z,94969.03
2023-04-18T11:22:54.400Z,94966.09
2023-04-18T11:25:25.293Z,94968.25
2023-04-18T11:27:52.019Z,94967.63
2023-04-18T11:30:19.021Z,94960.16
2023-04-18T11:32:46.866Z,94965.19
2023-04-18T11:35:15.399Z,94960.47
2023-04-18T11:37:45.350Z,94968.19
2023-04-18T11:40:12.977Z,94963.44
2023-04-18T11:42:41.567Z,94969.16
2023-04-18T11:45:12.629Z,94966.81
2023-04-18T11:47:41.795Z,94967.78
2023-04-18T11:50:11.304Z,94969.31
2023-04-18T11:52:39.676Z,94978.47
2023-04-18T11:55:14.076Z,94974.22
2023-04-18T11:57:42.174Z,94968.50
2023-04-18T12:00:12.165Z,94972.88
2023-04-18T12:02:41.125Z,94976.06
2023-04-18T12:05:08.580Z,94973.00
2023-04-18T12:07:37.736Z,94985.25
2023-04-18T12:10:06.148Z,94974.97
2023-04-18T12:12:33.334Z,94980.28
2023-04-18T12:15:03.338Z,94978.50
2023-04-18T12:17:31.069Z,94974.25
2023-04-18T12:20:02.041Z,94976.06
2023-04-18T12:22:43.178Z,94979.03
2023-04-18T12:25:27.090Z,94971.56
2023-04-18T12:27:57.866Z,94975.69
2023-04-18T12:30:27.203Z,94979.66
2023-04-18T12:32:54.865Z,94975.47
2023-04-18T12:35:22.343Z,94979.91
2023-04-18T12:37:50.073Z,94974.63
2023-04-18T12:40:18.994Z,94974.63
2023-04-18T12:42:46.551Z,94973.41
2023-04-18T12:45:14.013Z,94972.25
2023-04-18T12:47:43.912Z,94973.25
2023-04-18T12:50:12.175Z,94972.59
2023-04-18T12:52:40.267Z,94979.88
2023-04-18T12:55:08.194Z,94972.38
2023-04-18T12:57:35.033Z,94985.75
2023-04-18T13:00:02.151Z,94979.41
2023-04-18T13:02:29.254Z,94976.66
2023-04-18T13:04:58.384Z,94984.47
2023-04-18T13:07:25.216Z,94972.03
2023-04-18T13:09:51.860Z,94973.63
2023-04-18T13:12:18.986Z,94972.97
2023-04-18T13:14:46.112Z,94975.41
2023-04-18T13:17:13.124Z,94965.16
2023-04-18T13:19:39.732Z,94968.44
2023-04-18T13:22:07.938Z,94967.44
2023-04-18T13:24:34.599Z,94969.88
2023-04-18T13:27:02.327Z,94968.38
2023-04-18T13:29:28.955Z,94970.75
2023-04-18T13:31:55.677Z,94968.25
2023-04-18T13:34:22.336Z,94971.47
2023-04-18T13:36:48.919Z,94973.78
2023-04-18T13:39:17.373Z,94967.47
2023-04-18T13:41:44.060Z,94969.81
2023-04-18T13:44:11.043Z,94970.19
2023-04-18T13:46:38.062Z,94973.50
2023-04-18T13:49:04.689Z,94970.50
2023-04-18T13:51:31.663Z,94973.06
2023-04-18T13:54:00.478Z,94973.97
2023-04-18T13:56:28.536Z,94976.06
2023-04-18T13:58:55.902Z,94981.44
2023-04-18T14:01:22.559Z,94971.78
2023-04-18T14:03:49.377Z,94978.13
2023-04-18T14:06:16.033Z,94976.53
2023-04-18T14:08:42.628Z,94977.47
2023-04-18T14:11:09.217Z,94980.22
2023-04-18T14:13:37.144Z,94979.31
2023-04-18T14:16:04.459Z,94975.06
2023-04-18T14:18:31.067Z,94990.03
2023-04-18T14:20:57.635Z,94983.09
2023-04-18T14:23:25.800Z,94993.91
2023-04-18T14:25:52.349Z,94988.97
2023-04-18T14:28:21.547Z,94983.69
2023-04-18T14:30:49.584Z,94996.56
2023-04-18T14:33:16.274Z,94987.94
2023-04-18T14:35:43.782Z,94996.22
2023-04-18T14:38:11.178Z,94991.41
2023-04-18T14:40:38.011Z,94994.75
2023-04-18T14:43:04.571Z,94988.31
2023-04-18T14:45:32.718Z,94992.78
2023-04-18T14:48:00.748Z,94994.75
2023-04-18T14:50:27.603Z,94988.63
2023-04-18T14:52:54.307Z,94983.81
2023-04-18T14:55:20.883Z,94998.44
2023-04-18T14:57:47.504Z,94997.75
2023-04-18T15:00:15.456Z,94996.38
2023-04-18T15:02:42.233Z,95000.84
2023-04-18T15:05:11.434Z,94994.97
2023-04-18T15:07:38.220Z,95001.44
2023-04-18T15:10:05.824Z,94999.59
2023-04-18T15:12:32.799Z,95004.44
2023-04-18T15:14:59.902Z,95009.28
2023-04-18T15:17:26.687Z,95009.75
2023-04-18T15:19:53.411Z,95008.34
2023-04-18T15:22:21.304Z,95010.19
2023-04-18T15:24:47.898Z,95009.88
2023-04-18T15:27:14.442Z,95009.28
2023-04-18T15:29:41.159Z,95010.09
2023-04-18T15:32:07.965Z,95014.00
2023-04-18T15:34:34.668Z,95011.25
2023-04-18T15:37:02.277Z,95010.91
2023-04-18T15:39:30.214Z,95012.06
2023-04-18T15:41:56.927Z,95014.72
2023-04-18T15:44:23.618Z,95015.88
2023-04-18T15:46:50.911Z,95014.25
2023-04-18T15:49:17.671Z,95017.59
2023-04-18T15:51:44.240Z,95019.56
2023-04-18T15:54:11.005Z,95030.00
2023-04-18T15:56:39.013Z,95025.72
2023-04-18T15:59:06.121Z,95030.69
2023-04-18T16:01:33.213Z,95040.81
2023-04-18T16:03:59.956Z,95036.91
2023-04-18T16:06:26.633Z,95037.31
2023-04-18T16:08:53.248Z,95042.13
2023-04-18T16:11:21.603Z,95041.47
2023-04-18T16:13:49.615Z,95044.59
2023-04-18T16:16:16.736Z,95045.69
2023-04-18T16:18:43.423Z,95044.47
2023-04-18T16:21:13.151Z,95047.22
2023-04-18T16:23:39.564Z,95045.31
2023-04-18T16:26:06.506Z,95042.28
2023-04-18T16:28:37.577Z,95049.06
2023-04-18T16:31:06.194Z,95051.69
2023-04-18T16:33:33.092Z,95053.56
2023-04-18T16:36:02.522Z,95059.78
2023-04-18T16:38:29.349Z,95064.97
2023-04-18T16:40:57.379Z,95064.34
2023-04-18T16:43:26.675Z,95062.81
2023-04-18T16:45:56.188Z,95070.69
2023-04-18T16:48:24.418Z,95062.47
2023-04-18T16:50:51.021Z,95066.00
2023-04-18T16:53:17.686Z,95063.41
2023-04-18T16:55:44.333Z,95068.38
2023-04-18T16:58:11.192Z,95065.38
2023-04-18T17:00:38.667Z,95064.91
2023-04-18T17:03:07.272Z,95067.19
2023-04-18T17:05:35.493Z,95071.31
2023-04-18T17:08:03.576Z,95068.78
2023-04-18T17:10:30.606Z,95071.97
2023-04-18T17:12:57.764Z,95078.34
2023-04-18T17:15:26.073Z,95067.81
2023-04-18T17:17:52.897Z,95080.03
2023-04-18T17:20:20.235Z,95080.13
2023-04-18T17:22:48.172Z,95075.84
2023-04-18T17:25:15.692Z,95077.38
2023-04-18T17:27:42.914Z,95082.66
2023-04-18T17:30:10.629Z,95086.44
2023-04-18T17:32:42.813Z,95078.91
2023-04-18T17:35:10.308Z,95079.47
2023-04-18T17:37:37.253Z,95081.56
2023-04-18T17:40:09.560Z,95085.22
2023-04-18T17:42:36.793Z,95089.91
2023-04-18T17:45:03.689Z,95092.63
2023-04-18T17:47:31.630Z,95099.56
2023-04-18T17:49:58.234Z,95099.25
2023-04-18T17:52:24.955Z,95106.53
2023-04-18T17:54:51.545Z,95099.88
2023-04-18T17:57:19.936Z,95109.88
2023-04-18T17:59:46.550Z,95103.09
2023-04-18T18:02:13.201Z,95105.03
2023-04-18T18:04:40.056Z,95108.59
2023-04-18T18:07:06.761Z,95110.03
2023-04-18T18:09:33.390Z,95114.22
2023-04-18T18:12:00.070Z,95113.19
2023-04-18T18:14:28.121Z,95110.31
2023-04-18T18:16:54.818Z,95108.22
2023-04-18T18:19:21.487Z,95119.44
2023-04-18T18:21:48.088Z,95113.38
2023-04-18T18:24:14.738Z,95123.56
2023-04-18T18:26:41.464Z,95122.88
2023-04-18T18:29:11.518Z,95129.94
2023-04-18T18:31:39.566Z,95130.69
2023-04-18T18:34:06.273Z,95133.94
2023-04-18T18:36:32.975Z,95132.34
2023-04-18T18:38:59.579Z,95133.31
2023-04-18T18:41:26.283Z,95139.56
2023-04-18T18:43:52.983Z,95140.16
2023-04-18T18:46:20.513Z,95144.34
2023-04-18T18:48:49.689Z,95143.59
2023-04-18T18:51:17.918Z,95151.03
2023-04-18T18:53:44.882Z,95144.34
2023-04-18T18:56:11.475Z,95140.81
2023-04-18T18:58:39.089Z,95149.66
2023-04-18T19:01:06.637Z,95154.97
2023-04-18T19:03:34.624Z,95149.25
2023-04-18T19:06:04.238Z,95149.81
2023-04-18T19:08:31.056Z,95154.47
2023-04-18T19:10:57.644Z,95168.09
2023-04-18T19:13:24.347Z,95157.00
2023-04-18T19:15:51.534Z,95160.44
2023-04-18T19:18:19.934Z,95165.97
2023-04-18T19:20:46.811Z,95164.25
2023-04-18T19:23:14.697Z,95169.63
2023-04-18T19:25:41.499Z,95161.13
2023-04-18T19:28:08.197Z,95168.03
2023-04-18T19:30:34.791Z,95167.28
2023-04-18T19:33:01.418Z,95172.81
2023-04-18T19:35:28.228Z,95174.06
2023-04-18T19:38:01.379Z,95170.22
2023-04-18T19:40:29.989Z,95174.19
2023-04-18T19:42:57.132Z,95172.06
2023-04-18T19:45:23.759Z,95167.88
2023-04-18T19:47:50.480Z,95170.97
2023-04-18T19:50:17.225Z,95169.28
2023-04-18T19:52:43.821Z,95172.06
2023-04-18T19:55:10.554Z,95166.22
2023-04-18T19:57:39.552Z,95177.00
2023-04-18T20:00:09.114Z,95168.31
2023-04-18T20:02:35.911Z,95169.34
2023-04-18T20:05:02.965Z,95173.00
2023-04-18T20:07:30.120Z,95170.94
2023-04-18T20:09:56.812Z,95170.97
2023-04-18T20:12:23.692Z,95172.09
2023-04-18T20:14:52.158Z,95178.34
2023-04-18T20:17:18.844Z,95171.06
2023-04-18T20:19:49.508Z,95173.03
2023-04-18T20:22:16.231Z,95181.19
2023-04-18T20:24:44.908Z,95178.28
2023-04-18T20:27:12.119Z,95178.06
2023-04-18T20:29:38.823Z,95171.75
2023-04-18T20:32:07.058Z,95175.66
2023-04-18T20:34:33.656Z,95168.88
2023-04-18T20:37:00.309Z,95176.81
2023-04-18T20:39:28.008Z,95173.38
2023-04-18T20:41:57.541Z,95176.69
2023-04-18T20:44:24.908Z,95174.41
2023-04-18T20:46:54.859Z,95177.19
2023-04-18T20:49:22.824Z,95182.34
2023-04-18T20:51:49.432Z,95172.56
2023-04-18T20:54:16.391Z,95169.09
2023-04-18T20:56:43.208Z,95180.50
2023-04-18T20:59:09.823Z,95182.34
2023-04-18T21:01:37.285Z,95178.88
2023-04-18T21:04:04.200Z,95182.56
2023-04-18T21:06:32.878Z,95177.84
2023-04-18T21:08:59.460Z,95182.56
2023-04-18T21:11:26.126Z,95182.34
2023-04-18T21:13:52.679Z,95179.91
2023-04-18T21:16:19.467Z,95177.50
2023-04-18T21:18:46.121Z,95186.25
2023-04-18T21:21:12.732Z,95185.66
2023-04-18T21:23:44.246Z,95176.91
2023-04-18T21:26:12.368Z,95187.50
2023-04-18T21:28:53.198Z,95189.47
2023-04-18T21:31:19.865Z,95186.00
2023-04-18T21:33:46.463Z,95187.50
2023-04-18T21:36:13.049Z,95179.56
2023-04-18T21:38:39.616Z,95184.25
2023-04-18T21:41:07.843Z,95183.44
2023-04-18T21:43:34.478Z,95183.69
2023-04-18T21:46:01.131Z,95186.91
2023-04-18T21:48:27.802Z,95178.97
2023-04-18T21:50:54.898Z,95177.13
2023-04-18T21:53:21.649Z,95175.16
2023-04-18T21:55:48.198Z,95175.50
2023-04-18T21:58:16.131Z,95167.78
2023-04-18T22:00:42.724Z,95167.34
2023-04-18T22:03:09.435Z,95168.38
2023-04-18T22:05:36.915Z,95173.91
2023-04-18T22:08:03.829Z,95167.94
2023-04-18T22:10:31.004Z,95166.41
2023-04-18T22:12:58.393Z,95173.53
2023-04-18T22:15:27.105Z,95165.38
2023-04-18T22:17:54.295Z,95169.84
2023-04-18T22:20:21.648Z,95161.69
2023-04-18T22:22:48.230Z,95162.38
2023-04-18T22:25:14.950Z,95162.72
2023-04-18T22:27:42.976Z,95164.56
2023-04-18T22:30:10.514Z,95165.22
2023-04-18T22:32:38.949Z,95172.72
2023-04-18T22:35:06.579Z,95168.69
2023-04-18T22:37:33.215Z,95163.63
2023-04-18T22:39:59.779Z,95160.38
2023-04-18T22:42:26.331Z,95172.81
2023-04-18T22:44:52.890Z,95173.16
2023-04-18T22:47:19.477Z,95170.97
2023-04-18T22:49:47.465Z,95173.41
2023-04-18T22:52:14.239Z,95174.19
2023-04-18T22:54:41.146Z,95171.41
2023-04-18T22:57:07.875Z,95173.03
2023-04-18T22:59:34.494Z,95175.91
2023-04-18T23:02:01.446Z,95174.50
2023-04-18T23:04:31.170Z,95166.78
2023-04-18T23:06:59.002Z,95172.09
2023-04-18T23:09:27.025Z,95174.50
2023-04-18T23:11:53.779Z,95169.00
2023-04-18T23:14:21.460Z,95165.97
2023-04-18T23:16:48.086Z,95165.41
2023-04-18T23:19:14.728Z,95167.47
2023-04-18T23:21:41.525Z,95165.63
2023-04-18T23:24:10.683Z,95166.22
2023-04-18T23:26:37.490Z,95160.69
2023-04-18T23:29:04.132Z,95161.94
2023-04-18T23:31:32.874Z,95160.56
2023-04-18T23:33:59.538Z,95161.72
2023-04-18T23:36:27.390Z,95158.03
2023-04-18T23:38:54.067Z,95161.13
2023-04-18T23:41:22.043Z,95163.38
2023-04-18T23:43:48.657Z,95162.56
2023-04-18T23:46:15.557Z,95162.81
2023-04-18T23:48:42.296Z,95159.19
2023-04-18T23:51:08.871Z,95158.41
2023-04-18T23:53:35.450Z,95159.28
2023-04-18T23:56:02.029Z,95157.50
2023-04-18T23:58:31.673Z,95158.72
